sensor_id;sensor_type;location;lat;lon;timestamp;pressure;altitude;pressure_sealevel;temperature;humidity
55538;BME280;41383;51.418;7.286;2023-08-21T00:02:20;100508.63;;;21.48;72.46
55538;BME280;41383;51.418;7.286;2023-08-21T00:04:45;100519.06;;;21.51;72.47
55538;BME280;41383;51.418;7.286;2023-08-21T00:07:10;100519.41;;;21.49;72.60
55538;BME280;41383;51.418;7.286;2023-08-21T00:09:36;100516.25;;;21.42;72.86
55538;BME280;41383;51.418;7.286;2023-08-21T00:12:02;100517.53;;;21.27;73.16
55538;BME280;41383;51.418;7.286;2023-08-21T00:14:27;100522.41;;;21.21;73.67
55538;BME280;41383;51.418;7.286;2023-08-21T00:16:53;100518.66;;;21.26;73.80
55538;BME280;41383;51.418;7.286;2023-08-21T00:19:18;100516.88;;;21.30;74.03
55538;BME280;41383;51.418;7.286;2023-08-21T00:21:43;100513.81;;;21.31;73.77
55538;BME280;41383;51.418;7.286;2023-08-21T00:24:09;100516.06;;;21.29;73.67
55538;BME280;41383;51.418;7.286;2023-08-21T00:26:34;100504.50;;;21.27;73.36
55538;BME280;41383;51.418;7.286;2023-08-21T00:28:59;100503.16;;;21.25;73.93
55538;BME280;41383;51.418;7.286;2023-08-21T00:31:24;100509.03;;;21.23;73.87
55538;BME280;41383;51.418;7.286;2023-08-21T00:33:50;100514.88;;;21.21;73.82
55538;BME280;41383;51.418;7.286;2023-08-21T00:36:15;100509.66;;;21.20;73.90
55538;BME280;41383;51.418;7.286;2023-08-21T00:38:41;100514.03;;;21.12;73.97
55538;BME280;41383;51.418;7.286;2023-08-21T00:41:06;100509.81;;;21.15;74.05
55538;BME280;41383;51.418;7.286;2023-08-21T00:43:31;100514.53;;;21.14;73.90
55538;BME280;41383;51.418;7.286;2023-08-21T00:45:57;100514.03;;;21.12;73.99
55538;BME280;41383;51.418;7.286;2023-08-21T00:48:22;100517.94;;;21.11;73.70
55538;BME280;41383;51.418;7.286;2023-08-21T00:50:48;100511.41;;;21.07;74.07
55538;BME280;41383;51.418;7.286;2023-08-21T00:53:13;100520.84;;;21.06;73.97
55538;BME280;41383;51.418;7.286;2023-08-21T00:55:40;100508.94;;;21.05;73.81
55538;BME280;41383;51.418;7.286;2023-08-21T00:58:05;100514.31;;;21.02;73.84
55538;BME280;41383;51.418;7.286;2023-08-21T01:00:31;100514.81;;;21.04;73.82
55538;BME280;41383;51.418;7.286;2023-08-21T01:02:56;100505.66;;;21.03;73.66
55538;BME280;41383;51.418;7.286;2023-08-21T01:05:22;100505.66;;;21.03;73.83
55538;BME280;41383;51.418;7.286;2023-08-21T01:07:53;100506.50;;;21.04;73.58
55538;BME280;41383;51.418;7.286;2023-08-21T01:10:36;100506.31;;;21.00;73.58
55538;BME280;41383;51.418;7.286;2023-08-21T01:13:44;100514.63;;;21.00;73.28
55538;BME280;41383;51.418;7.286;2023-08-21T01:16:13;100522.56;;;20.93;73.92
55538;BME280;41383;51.418;7.286;2023-08-21T01:18:40;100521.84;;;20.87;73.95
55538;BME280;41383;51.418;7.286;2023-08-21T01:21:06;100521.53;;;20.88;73.91
55538;BME280;41383;51.418;7.286;2023-08-21T01:23:35;100529.88;;;20.88;73.57
55538;BME280;41383;51.418;7.286;2023-08-21T01:26:01;100530.97;;;20.87;73.58
55538;BME280;41383;51.418;7.286;2023-08-21T01:28:26;100529.88;;;20.88;73.23
55538;BME280;41383;51.418;7.286;2023-08-21T01:31:03;100520.41;;;20.90;73.46
55538;BME280;41383;51.418;7.286;2023-08-21T01:33:33;100525.63;;;20.91;73.37
55538;BME280;41383;51.418;7.286;2023-08-21T01:35:59;100531.66;;;20.93;73.16
55538;BME280;41383;51.418;7.286;2023-08-21T01:38:30;100530.38;;;20.91;73.28
55538;BME280;41383;51.418;7.286;2023-08-21T01:40:55;100532.50;;;20.94;73.46
55538;BME280;41383;51.418;7.286;2023-08-21T01:43:21;100533.63;;;20.93;73.39
55538;BME280;41383;51.418;7.286;2023-08-21T01:45:46;100535.09;;;20.90;73.20
55538;BME280;41383;51.418;7.286;2023-08-21T01:48:11;100527.88;;;20.89;73.43
55538;BME280;41383;51.418;7.286;2023-08-21T01:50:37;100527.88;;;20.89;73.21
55538;BME280;41383;51.418;7.286;2023-08-21T01:53:02;100527.72;;;20.85;73.34
55538;BME280;41383;51.418;7.286;2023-08-21T01:55:27;100528.34;;;20.82;73.58
55538;BME280;41383;51.418;7.286;2023-08-21T01:57:52;100522.00;;;20.82;73.76
55538;BME280;41383;51.418;7.286;2023-08-21T02:00:18;100524.56;;;20.78;74.06
55538;BME280;41383;51.418;7.286;2023-08-21T02:02:43;100518.06;;;20.83;73.85
55538;BME280;41383;51.418;7.286;2023-08-21T02:05:08;100512.53;;;20.83;73.94
55538;BME280;41383;51.418;7.286;2023-08-21T02:07:34;100513.69;;;20.82;73.82
55538;BME280;41383;51.418;7.286;2023-08-21T02:09:59;100518.06;;;20.83;73.86
55538;BME280;41383;51.418;7.286;2023-08-21T02:12:25;100502.78;;;20.85;73.49
55538;BME280;41383;51.418;7.286;2023-08-21T02:14:50;100506.03;;;20.87;73.22
55538;BME280;41383;51.418;7.286;2023-08-21T02:17:15;100494.47;;;20.85;72.76
55538;BME280;41383;51.418;7.286;2023-08-21T02:19:41;100500.19;;;20.89;72.98
55538;BME280;41383;51.418;7.286;2023-08-21T02:22:06;100498.06;;;20.86;72.76
55538;BME280;41383;51.418;7.286;2023-08-21T02:24:31;100495.28;;;20.86;72.99
55538;BME280;41383;51.418;7.286;2023-08-21T02:26:56;100492.19;;;20.87;72.96
55538;BME280;41383;51.418;7.286;2023-08-21T02:29:22;100497.91;;;20.91;72.66
55538;BME280;41383;51.418;7.286;2023-08-21T02:31:47;100492.38;;;20.91;71.94
55538;BME280;41383;51.418;7.286;2023-08-21T02:34:12;100498.41;;;20.93;72.52
55538;BME280;41383;51.418;7.286;2023-08-21T02:36:37;100500.06;;;20.94;72.13
55538;BME280;41383;51.418;7.286;2023-08-21T02:39:03;100498.72;;;20.92;72.10
55538;BME280;41383;51.418;7.286;2023-08-21T02:41:29;100501.19;;;20.93;72.14
55538;BME280;41383;51.418;7.286;2023-08-21T02:43:54;100502.00;;;20.94;72.19
55538;BME280;41383;51.418;7.286;2023-08-21T02:46:19;100505.72;;;20.89;72.64
55538;BME280;41383;51.418;7.286;2023-08-21T02:48:44;100510.59;;;20.83;72.27
55538;BME280;41383;51.418;7.286;2023-08-21T02:51:10;100501.44;;;20.83;72.47
55538;BME280;41383;51.418;7.286;2023-08-21T02:53:35;100512.72;;;20.86;72.37
55538;BME280;41383;51.418;7.286;2023-08-21T02:56:00;100509.13;;;20.86;72.44
55538;BME280;41383;51.418;7.286;2023-08-21T02:58:25;100512.09;;;20.90;72.52
55538;BME280;41383;51.418;7.286;2023-08-21T03:00:51;100506.53;;;20.90;72.65
55538;BME280;41383;51.418;7.286;2023-08-21T03:03:16;100512.09;;;20.90;72.62
55538;BME280;41383;51.418;7.286;2023-08-21T03:05:42;100512.09;;;20.90;72.80
55538;BME280;41383;51.418;7.286;2023-08-21T03:08:07;100521.53;;;20.88;72.83
55538;BME280;41383;51.418;7.286;2023-08-21T03:10:33;100521.84;;;20.87;73.08
55538;BME280;41383;51.418;7.286;2023-08-21T03:12:59;100526.09;;;20.84;73.19
55538;BME280;41383;51.418;7.286;2023-08-21T03:15:25;100518.91;;;20.83;73.41
55538;BME280;41383;51.418;7.286;2023-08-21T03:17:51;100512.81;;;20.72;73.72
55538;BME280;41383;51.418;7.286;2023-08-21T03:20:16;100512.88;;;20.35;74.69
55538;BME280;41383;51.418;7.286;2023-08-21T03:22:43;100506.94;;;20.28;75.41
55538;BME280;41383;51.418;7.286;2023-08-21T03:25:08;100509.13;;;20.17;76.07
55538;BME280;41383;51.418;7.286;2023-08-21T03:27:34;100505.81;;;20.29;75.51
55538;BME280;41383;51.418;7.286;2023-08-21T03:30:05;100503.41;;;20.36;75.73
55538;BME280;41383;51.418;7.286;2023-08-21T03:32:32;100497.97;;;20.45;74.87
55538;BME280;41383;51.418;7.286;2023-08-21T03:34:57;100501.72;;;20.49;74.92
55538;BME280;41383;51.418;7.286;2023-08-21T03:37:22;100504.38;;;20.32;75.45
55538;BME280;41383;51.418;7.286;2023-08-21T03:39:48;100504.38;;;20.32;75.73
55538;BME280;41383;51.418;7.286;2023-08-21T03:42:13;100510.94;;;20.36;75.48
55538;BME280;41383;51.418;7.286;2023-08-21T03:44:39;100506.69;;;20.38;75.43
55538;BME280;41383;51.418;7.286;2023-08-21T03:47:04;100509.91;;;20.32;75.19
55538;BME280;41383;51.418;7.286;2023-08-21T03:49:30;100507.50;;;20.02;76.24
55538;BME280;41383;51.418;7.286;2023-08-21T03:51:55;100507.19;;;20.03;76.97
55538;BME280;41383;51.418;7.286;2023-08-21T03:54:20;100501.97;;;20.02;76.63
55538;BME280;41383;51.418;7.286;2023-08-21T03:56:46;100505.66;;;20.11;76.92
55538;BME280;41383;51.418;7.286;2023-08-21T03:59:11;100494.38;;;20.22;75.92
55538;BME280;41383;51.418;7.286;2023-08-21T04:01:36;100505.53;;;20.16;76.41
55538;BME280;41383;51.418;7.286;2023-08-21T04:04:02;100510.16;;;20.21;76.31
55538;BME280;41383;51.418;7.286;2023-08-21T04:06:27;100507.06;;;20.23;76.39
55538;BME280;41383;51.418;7.286;2023-08-21T04:08:52;100506.47;;;20.12;76.47
55538;BME280;41383;51.418;7.286;2023-08-21T04:11:17;100509.75;;;20.00;77.24
55538;BME280;41383;51.418;7.286;2023-08-21T04:13:43;100513.03;;;20.02;77.42
55538;BME280;41383;51.418;7.286;2023-08-21T04:16:08;100507.94;;;20.09;77.23
55538;BME280;41383;51.418;7.286;2023-08-21T04:18:33;100515.50;;;20.17;77.04
55538;BME280;41383;51.418;7.286;2023-08-21T04:21:01;100523.34;;;20.24;77.12
55538;BME280;41383;51.418;7.286;2023-08-21T04:23:27;100522.41;;;20.29;76.43
55538;BME280;41383;51.418;7.286;2023-08-21T04:25:52;100519.84;;;20.33;76.94
55538;BME280;41383;51.418;7.286;2023-08-21T04:28:17;100515.75;;;20.30;76.93
55538;BME280;41383;51.418;7.286;2023-08-21T04:30:42;100523.25;;;20.29;76.90
55538;BME280;41383;51.418;7.286;2023-08-21T04:33:08;100521.78;;;20.32;76.50
55538;BME280;41383;51.418;7.286;2023-08-21T04:35:37;100520.16;;;20.31;76.14
55538;BME280;41383;51.418;7.286;2023-08-21T04:38:03;100525.31;;;20.24;76.55
55538;BME280;41383;51.418;7.286;2023-08-21T04:40:29;100526.34;;;20.14;76.64
55538;BME280;41383;51.418;7.286;2023-08-21T04:42:54;100531.69;;;20.10;76.80
55538;BME280;41383;51.418;7.286;2023-08-21T04:45:19;100522.84;;;20.22;76.59
55538;BME280;41383;51.418;7.286;2023-08-21T04:47:44;100531.34;;;20.26;76.52
55538;BME280;41383;51.418;7.286;2023-08-21T04:50:11;100525.69;;;20.31;76.27
55538;BME280;41383;51.418;7.286;2023-08-21T04:52:37;100526.53;;;20.32;75.96
55538;BME280;41383;51.418;7.286;2023-08-21T04:55:02;100531.09;;;20.36;76.05
55538;BME280;41383;51.418;7.286;2023-08-21T04:57:27;100526.06;;;20.38;75.99
55538;BME280;41383;51.418;7.286;2023-08-21T04:59:53;100522.78;;;20.36;75.93
55538;BME280;41383;51.418;7.286;2023-08-21T05:02:18;100529.16;;;20.37;75.73
55538;BME280;41383;51.418;7.286;2023-08-21T05:04:43;100534.88;;;20.40;75.58
55538;BME280;41383;51.418;7.286;2023-08-21T05:07:09;100533.78;;;20.41;75.59
55538;BME280;41383;51.418;7.286;2023-08-21T05:09:34;100532.44;;;20.39;75.58
55538;BME280;41383;51.418;7.286;2023-08-21T05:11:59;100541.47;;;20.30;75.97
55538;BME280;41383;51.418;7.286;2023-08-21T05:14:24;100536.88;;;20.26;76.44
55538;BME280;41383;51.418;7.286;2023-08-21T05:16:50;100534.50;;;20.33;76.10
55538;BME280;41383;51.418;7.286;2023-08-21T05:19:16;100525.28;;;20.38;75.50
55538;BME280;41383;51.418;7.286;2023-08-21T05:21:41;100531.50;;;20.44;75.12
55538;BME280;41383;51.418;7.286;2023-08-21T05:24:07;100524.41;;;20.51;74.60
55538;BME280;41383;51.418;7.286;2023-08-21T05:26:32;100522.31;;;20.57;74.70
55538;BME280;41383;51.418;7.286;2023-08-21T05:28:57;100540.44;;;20.63;74.64
55538;BME280;41383;51.418;7.286;2023-08-21T05:31:23;100543.72;;;20.65;74.31
55538;BME280;41383;51.418;7.286;2023-08-21T05:33:48;100540.00;;;20.70;74.02
55538;BME280;41383;51.418;7.286;2023-08-21T05:36:13;100539.03;;;20.75;74.05
55538;BME280;41383;51.418;7.286;2023-08-21T05:38:38;100533.50;;;20.75;73.79
55538;BME280;41383;51.418;7.286;2023-08-21T05:41:04;100541.03;;;20.74;73.93
55538;BME280;41383;51.418;7.286;2023-08-21T05:43:29;100534.97;;;20.72;74.39
55538;BME280;41383;51.418;7.286;2023-08-21T05:45:55;100536.78;;;20.77;73.60
55538;BME280;41383;51.418;7.286;2023-08-21T05:48:20;100543.66;;;20.80;74.33
55538;BME280;41383;51.418;7.286;2023-08-21T05:50:50;100535.69;;;20.87;73.81
55538;BME280;41383;51.418;7.286;2023-08-21T05:53:16;100535.69;;;20.87;74.05
55538;BME280;41383;51.418;7.286;2023-08-21T05:55:41;100538.78;;;20.85;73.97
55538;BME280;41383;51.418;7.286;2023-08-21T05:58:06;100542.13;;;20.96;73.70
55538;BME280;41383;51.418;7.286;2023-08-21T06:00:33;100535.84;;;21.05;72.65
55538;BME280;41383;51.418;7.286;2023-08-21T06:02:58;100538.81;;;21.08;72.54
55538;BME280;41383;51.418;7.286;2023-08-21T06:05:24;100523.78;;;21.09;72.37
55538;BME280;41383;51.418;7.286;2023-08-21T06:07:49;100532.75;;;21.06;72.68
55538;BME280;41383;51.418;7.286;2023-08-21T06:10:14;100528.22;;;21.10;72.80
55538;BME280;41383;51.418;7.286;2023-08-21T06:12:40;100534.25;;;21.13;72.85
55538;BME280;41383;51.418;7.286;2023-08-21T06:15:06;100533.81;;;21.19;72.78
55538;BME280;41383;51.418;7.286;2023-08-21T06:17:35;100540.81;;;21.26;71.91
55538;BME280;41383;51.418;7.286;2023-08-21T06:20:01;100540.22;;;21.29;71.99
55538;BME280;41383;51.418;7.286;2023-08-21T06:22:28;100537.75;;;21.27;72.01
55538;BME280;41383;51.418;7.286;2023-08-21T06:24:53;100541.66;;;21.26;72.55
55538;BME280;41383;51.418;7.286;2023-08-21T06:27:18;100550.28;;;21.25;72.33
55538;BME280;41383;51.418;7.286;2023-08-21T06:29:44;100551.91;;;21.26;72.45
55538;BME280;41383;51.418;7.286;2023-08-21T06:32:09;100547.19;;;21.26;72.58
55538;BME280;41383;51.418;7.286;2023-08-21T06:34:34;100547.19;;;21.26;72.54
55538;BME280;41383;51.418;7.286;2023-08-21T06:37:00;100543.31;;;21.27;72.64
55538;BME280;41383;51.418;7.286;2023-08-21T06:39:25;100551.63;;;21.27;72.86
55538;BME280;41383;51.418;7.286;2023-08-21T06:41:51;100548.19;;;21.30;72.84
55538;BME280;41383;51.418;7.286;2023-08-21T06:44:16;100549.84;;;21.31;72.85
55538;BME280;41383;51.418;7.286;2023-08-21T06:46:41;100543.81;;;21.38;72.88
55538;BME280;41383;51.418;7.286;2023-08-21T06:49:07;100543.03;;;21.46;72.44
55538;BME280;41383;51.418;7.286;2023-08-21T06:51:32;100548.13;;;21.53;72.32
55538;BME280;41383;51.418;7.286;2023-08-21T06:53:58;100548.63;;;21.55;72.30
55538;BME280;41383;51.418;7.286;2023-08-21T06:56:23;100545.06;;;21.64;72.67
55538;BME280;41383;51.418;7.286;2023-08-21T06:58:48;100538.25;;;21.70;72.66
55538;BME280;41383;51.418;7.286;2023-08-21T07:01:13;100543.13;;;21.73;72.60
55538;BME280;41383;51.418;7.286;2023-08-21T07:03:39;100542.88;;;21.84;72.32
55538;BME280;41383;51.418;7.286;2023-08-21T07:06:04;100533.25;;;21.90;72.46
55538;BME280;41383;51.418;7.286;2023-08-21T07:08:30;100534.06;;;21.99;72.08
55538;BME280;41383;51.418;7.286;2023-08-21T07:10:55;100540.59;;;22.03;72.13
55538;BME280;41383;51.418;7.286;2023-08-21T07:13:20;100542.75;;;22.07;72.31
55538;BME280;41383;51.418;7.286;2023-08-21T07:15:46;100547.47;;;22.06;72.10
55538;BME280;41383;51.418;7.286;2023-08-21T07:18:12;100539.97;;;22.07;72.61
55538;BME280;41383;51.418;7.286;2023-08-21T07:20:37;100546.50;;;22.11;72.93
55538;BME280;41383;51.418;7.286;2023-08-21T07:23:03;100544.88;;;22.10;73.04
55538;BME280;41383;51.418;7.286;2023-08-21T07:25:28;100550.41;;;22.10;72.87
55538;BME280;41383;51.418;7.286;2023-08-21T07:27:54;100554.69;;;22.16;72.69
55538;BME280;41383;51.418;7.286;2023-08-21T07:30:20;100549.94;;;22.16;73.45
55538;BME280;41383;51.418;7.286;2023-08-21T07:32:46;100547.81;;;22.22;72.64
55538;BME280;41383;51.418;7.286;2023-08-21T07:35:12;100555.66;;;22.20;72.49
55538;BME280;41383;51.418;7.286;2023-08-21T07:37:37;100539.81;;;22.21;72.80
55538;BME280;41383;51.418;7.286;2023-08-21T07:40:04;100545.03;;;22.22;72.90
55538;BME280;41383;51.418;7.286;2023-08-21T07:42:30;100544.88;;;22.27;73.53
55538;BME280;41383;51.418;7.286;2023-08-21T07:44:55;100551.41;;;22.32;72.89
55538;BME280;41383;51.418;7.286;2023-08-21T07:47:20;100557.78;;;22.32;72.95
55538;BME280;41383;51.418;7.286;2023-08-21T07:49:45;100566.94;;;22.33;74.43
55538;BME280;41383;51.418;7.286;2023-08-21T07:52:11;100565.78;;;22.34;73.94
55538;BME280;41383;51.418;7.286;2023-08-21T07:54:36;100557.31;;;22.39;73.48
55538;BME280;41383;51.418;7.286;2023-08-21T07:57:01;100557.63;;;22.46;73.11
55538;BME280;41383;51.418;7.286;2023-08-21T07:59:29;100557.97;;;22.45;72.27
55538;BME280;41383;51.418;7.286;2023-08-21T08:01:54;100562.53;;;22.49;72.14
55538;BME280;41383;51.418;7.286;2023-08-21T08:04:19;100564.16;;;22.50;71.88
55538;BME280;41383;51.418;7.286;2023-08-21T08:06:45;100569.88;;;22.54;72.26
55538;BME280;41383;51.418;7.286;2023-08-21T08:09:10;100563.84;;;22.61;72.02
55538;BME280;41383;51.418;7.286;2023-08-21T08:11:36;100563.16;;;22.64;71.73
55538;BME280;41383;51.418;7.286;2023-08-21T08:14:01;100560.38;;;22.64;72.96
55538;BME280;41383;51.418;7.286;2023-08-21T08:16:26;100556.81;;;22.63;72.20
55538;BME280;41383;51.418;7.286;2023-08-21T08:18:52;100552.28;;;22.68;72.28
55538;BME280;41383;51.418;7.286;2023-08-21T08:21:17;100554.88;;;22.73;72.13
55538;BME280;41383;51.418;7.286;2023-08-21T08:23:42;100556.66;;;22.78;72.25
55538;BME280;41383;51.418;7.286;2023-08-21T08:26:08;100543.75;;;22.82;72.41
55538;BME280;41383;51.418;7.286;2023-08-21T08:28:34;100541.94;;;22.86;71.90
55538;BME280;41383;51.418;7.286;2023-08-21T08:30:59;100550.44;;;22.90;71.77
55538;BME280;41383;51.418;7.286;2023-08-21T08:33:25;100543.41;;;22.92;71.85
55538;BME280;41383;51.418;7.286;2023-08-21T08:35:50;100541.41;;;22.93;71.55
55538;BME280;41383;51.418;7.286;2023-08-21T08:38:16;100542.91;;;22.90;71.12
55538;BME280;41383;51.418;7.286;2023-08-21T08:40:47;100547.78;;;22.93;71.52
55538;BME280;41383;51.418;7.286;2023-08-21T08:43:13;100545.81;;;23.03;71.63
55538;BME280;41383;51.418;7.286;2023-08-21T08:45:40;100543.84;;;23.03;71.13
55538;BME280;41383;51.418;7.286;2023-08-21T08:48:06;100547.44;;;23.04;70.85
55538;BME280;41383;51.418;7.286;2023-08-21T08:50:32;100548.28;;;23.04;70.90
55538;BME280;41383;51.418;7.286;2023-08-21T08:52:59;100561.31;;;23.13;71.18
55538;BME280;41383;51.418;7.286;2023-08-21T08:55:25;100554.28;;;23.15;70.96
55538;BME280;41383;51.418;7.286;2023-08-21T08:57:51;100559.97;;;23.19;71.18
55538;BME280;41383;51.418;7.286;2023-08-21T09:00:17;100553.63;;;23.18;70.48
55538;BME280;41383;51.418;7.286;2023-08-21T09:02:43;100557.88;;;23.25;70.21
55538;BME280;41383;51.418;7.286;2023-08-21T09:05:08;100557.88;;;23.25;69.75
55538;BME280;41383;51.418;7.286;2023-08-21T09:07:35;100559.28;;;23.31;69.96
55538;BME280;41383;51.418;7.286;2023-08-21T09:10:02;100566.16;;;23.33;68.98
55538;BME280;41383;51.418;7.286;2023-08-21T09:12:31;100564.00;;;23.39;69.04
55538;BME280;41383;51.418;7.286;2023-08-21T09:14:58;100563.22;;;23.39;68.53
55538;BME280;41383;51.418;7.286;2023-08-21T09:17:23;100563.34;;;23.42;68.34
55538;BME280;41383;51.418;7.286;2023-08-21T09:19:49;100557.78;;;23.42;68.64
55538;BME280;41383;51.418;7.286;2023-08-21T09:22:16;100562.06;;;23.49;68.83
55538;BME280;41383;51.418;7.286;2023-08-21T09:25:05;100558.25;;;23.53;67.58
55538;BME280;41383;51.418;7.286;2023-08-21T09:27:37;100560.50;;;23.60;68.12
55538;BME280;41383;51.418;7.286;2023-08-21T09:30:04;100560.66;;;23.64;67.63
55538;BME280;41383;51.418;7.286;2023-08-21T09:32:30;100554.91;;;23.69;68.55
55538;BME280;41383;51.418;7.286;2023-08-21T09:34:56;100557.50;;;23.74;68.46
55538;BME280;41383;51.418;7.286;2023-08-21T09:37:28;100558.47;;;23.78;68.03
55538;BME280;41383;51.418;7.286;2023-08-21T09:39:54;100553.22;;;23.77;66.22
55538;BME280;41383;51.418;7.286;2023-08-21T09:42:25;100548.16;;;23.79;67.02
55538;BME280;41383;51.418;7.286;2023-08-21T09:44:51;100542.06;;;23.86;67.86
55538;BME280;41383;51.418;7.286;2023-08-21T09:47:16;100541.50;;;23.93;67.55
55538;BME280;41383;51.418;7.286;2023-08-21T09:49:42;100542.28;;;24.02;66.28
55538;BME280;41383;51.418;7.286;2023-08-21T09:52:09;100545.19;;;24.06;67.07
55538;BME280;41383;51.418;7.286;2023-08-21T09:54:38;100541.59;;;24.05;65.80
55538;BME280;41383;51.418;7.286;2023-08-21T09:57:04;100542.06;;;24.07;66.44
55538;BME280;41383;51.418;7.286;2023-08-21T09:59:30;100539.88;;;24.13;67.19
55538;BME280;41383;51.418;7.286;2023-08-21T10:01:58;100535.41;;;24.21;66.32
55538;BME280;41383;51.418;7.286;2023-08-21T10:04:25;100544.09;;;24.28;65.50
55538;BME280;41383;51.418;7.286;2023-08-21T10:06:51;100538.50;;;24.28;65.53
55538;BME280;41383;51.418;7.286;2023-08-21T10:09:17;100532.06;;;24.36;64.66
55538;BME280;41383;51.418;7.286;2023-08-21T10:11:42;100537.19;;;24.47;65.21
55538;BME280;41383;51.418;7.286;2023-08-21T10:14:08;100536.63;;;24.54;65.08
55538;BME280;41383;51.418;7.286;2023-08-21T10:16:33;100540.84;;;24.60;65.12
55538;BME280;41383;51.418;7.286;2023-08-21T10:19:03;100536.22;;;24.64;63.97
55538;BME280;41383;51.418;7.286;2023-08-21T10:21:34;100528.09;;;24.71;63.85
55538;BME280;41383;51.418;7.286;2023-08-21T10:24:00;100538.94;;;24.73;64.28
55538;BME280;41383;51.418;7.286;2023-08-21T10:26:26;100532.72;;;24.67;63.39
55538;BME280;41383;51.418;7.286;2023-08-21T10:29:02;100528.09;;;24.71;63.82
55538;BME280;41383;51.418;7.286;2023-08-21T10:31:41;100526.41;;;24.79;63.07
55538;BME280;41383;51.418;7.286;2023-08-21T10:34:12;100526.78;;;24.90;62.38
55538;BME280;41383;51.418;7.286;2023-08-21T10:39:25;100531.59;;;25.02;62.00
55538;BME280;41383;51.418;7.286;2023-08-21T10:42:01;100532.53;;;25.06;63.10
55538;BME280;41383;51.418;7.286;2023-08-21T10:47:31;100537.63;;;25.04;61.09
55538;BME280;41383;51.418;7.286;2023-08-21T10:50:07;100542.09;;;25.18;61.79
55538;BME280;41383;51.418;7.286;2023-08-21T10:52:36;100548.13;;;25.20;61.83
55538;BME280;41383;51.418;7.286;2023-08-21T10:55:03;100545.13;;;25.25;61.35
55538;BME280;41383;51.418;7.286;2023-08-21T10:57:32;100540.94;;;25.32;61.75
55538;BME280;41383;51.418;7.286;2023-08-21T11:00:03;100539.28;;;25.30;60.69
55538;BME280;41383;51.418;7.286;2023-08-21T11:02:30;100536.50;;;25.30;60.64
55538;BME280;41383;51.418;7.286;2023-08-21T11:04:57;100541.41;;;25.34;61.18
55538;BME280;41383;51.418;7.286;2023-08-21T11:07:24;100534.66;;;25.35;61.60
55538;BME280;41383;51.418;7.286;2023-08-21T11:09:49;100534.31;;;25.36;62.16
55538;BME280;41383;51.418;7.286;2023-08-21T11:12:21;100545.94;;;25.38;62.26
55538;BME280;41383;51.418;7.286;2023-08-21T11:14:46;100540.47;;;25.42;61.49
55538;BME280;41383;51.418;7.286;2023-08-21T11:17:12;100535.59;;;25.39;60.21
55538;BME280;41383;51.418;7.286;2023-08-21T11:19:39;100533.72;;;25.30;61.20
55538;BME280;41383;51.418;7.286;2023-08-21T11:22:05;100540.69;;;25.37;61.95
55538;BME280;41383;51.418;7.286;2023-08-21T11:27:12;100529.91;;;25.48;61.09
55538;BME280;41383;51.418;7.286;2023-08-21T11:29:41;100538.50;;;25.55;60.63
55538;BME280;41383;51.418;7.286;2023-08-21T11:34:35;100542.13;;;25.68;61.00
55538;BME280;41383;51.418;7.286;2023-08-21T11:37:01;100541.19;;;25.76;60.75
55538;BME280;41383;51.418;7.286;2023-08-21T11:39:26;100536.44;;;25.77;59.60
55538;BME280;41383;51.418;7.286;2023-08-21T11:41:56;100538.88;;;25.79;59.74
55538;BME280;41383;51.418;7.286;2023-08-21T11:44:22;100540.00;;;25.90;59.49
55538;BME280;41383;51.418;7.286;2023-08-21T11:46:47;100544.19;;;25.96;59.08
55538;BME280;41383;51.418;7.286;2023-08-21T11:49:12;100540.00;;;26.03;59.61
55538;BME280;41383;51.418;7.286;2023-08-21T11:51:39;100537.66;;;26.05;59.38
55538;BME280;41383;51.418;7.286;2023-08-21T11:54:05;100532.28;;;26.12;59.78
55538;BME280;41383;51.418;7.286;2023-08-21T11:56:31;100532.50;;;26.19;59.17
55538;BME280;41383;51.418;7.286;2023-08-21T11:58:56;100535.84;;;26.25;59.15
55538;BME280;41383;51.418;7.286;2023-08-21T12:01:24;100535.25;;;26.32;59.39
55538;BME280;41383;51.418;7.286;2023-08-21T12:03:49;100531.19;;;26.29;57.81
55538;BME280;41383;51.418;7.286;2023-08-21T12:06:22;100539.22;;;26.31;58.39
55538;BME280;41383;51.418;7.286;2023-08-21T12:08:47;100531.28;;;26.33;59.03
55538;BME280;41383;51.418;7.286;2023-08-21T12:11:13;100535.50;;;26.39;58.23
55538;BME280;41383;51.418;7.286;2023-08-21T12:13:38;100537.09;;;26.40;57.40
55538;BME280;41383;51.418;7.286;2023-08-21T12:16:04;100527.28;;;26.46;59.22
55538;BME280;41383;51.418;7.286;2023-08-21T12:18:29;100532.56;;;26.48;58.20
55538;BME280;41383;51.418;7.286;2023-08-21T12:20:54;100524.03;;;26.44;57.78
55538;BME280;41383;51.418;7.286;2023-08-21T12:23:20;100529.31;;;26.46;58.30
55538;BME280;41383;51.418;7.286;2023-08-21T12:25:45;100525.31;;;26.47;57.83
55538;BME280;41383;51.418;7.286;2023-08-21T12:28:11;100524.97;;;26.49;58.77
55538;BME280;41383;51.418;7.286;2023-08-21T12:30:36;100522.28;;;26.52;58.33
55538;BME280;41383;51.418;7.286;2023-08-21T12:33:02;100518.91;;;26.46;58.97
55538;BME280;41383;51.418;7.286;2023-08-21T12:35:27;100511.25;;;26.43;58.29
55538;BME280;41383;51.418;7.286;2023-08-21T12:37:57;100509.38;;;26.48;57.36
55538;BME280;41383;51.418;7.286;2023-08-21T12:40:23;100515.88;;;26.52;56.83
55538;BME280;41383;51.418;7.286;2023-08-21T12:42:48;100511.19;;;26.56;57.77
55538;BME280;41383;51.418;7.286;2023-08-21T12:45:15;100518.41;;;26.57;55.90
55538;BME280;41383;51.418;7.286;2023-08-21T12:47:40;100514.53;;;26.62;57.77
55538;BME280;41383;51.418;7.286;2023-08-21T12:50:06;100506.72;;;26.67;57.23
55538;BME280;41383;51.418;7.286;2023-08-21T12:52:31;100515.56;;;26.69;57.56
55538;BME280;41383;51.418;7.286;2023-08-21T12:54:56;100519.63;;;26.72;57.03
55538;BME280;41383;51.418;7.286;2023-08-21T12:57:22;100508.97;;;26.78;56.49